sensor_id;sensor_type;location;lat;lon;timestamp;P1;durP1;ratioP1;P2;durP2;ratioP2
59233;SDS011;60776;51.702;7.462;2023-06-22T00:02:13;8.35;;;7.47;;
59233;SDS011;60776;51.702;7.462;2023-06-22T00:04:39;9.02;;;8.13;;
59233;SDS011;60776;51.702;7.462;2023-06-22T00:07:05;8.73;;;7.90;;
59233;SDS011;60776;51.702;7.462;2023-06-22T00:09:38;8.35;;;7.30;;
59233;SDS011;60776;51.702;7.462;2023-06-22T00:12:04;8.38;;;7.57;;
59233;SDS011;60776;51.702;7.462;2023-06-22T00:14:33;9.07;;;8.18;;
59233;SDS011;60776;51.702;7.462;2023-06-22T00:16:58;9.23;;;8.32;;
59233;SDS011;60776;51.702;7.462;2023-06-22T00:19:24;9.07;;;7.68;;
59233;SDS011;60776;51.702;7.462;2023-06-22T00:21:54;9.40;;;8.23;;
59233;SDS011;60776;51.702;7.462;2023-06-22T00:24:21;8.95;;;7.78;;
59233;SDS011;60776;51.702;7.462;2023-06-22T00:26:50;11.32;;;9.20;;
59233;SDS011;60776;51.702;7.462;2023-06-22T00:29:16;7.95;;;7.15;;
59233;SDS011;60776;51.702;7.462;2023-06-22T00:31:42;9.02;;;7.68;;
59233;SDS011;60776;51.702;7.462;2023-06-22T00:34:07;11.52;;;9.25;;
59233;SDS011;60776;51.702;7.462;2023-06-22T00:36:34;8.57;;;7.43;;
59233;SDS011;60776;51.702;7.462;2023-06-22T00:39:02;9.48;;;8.45;;
59233;SDS011;60776;51.702;7.462;2023-06-22T00:41:31;10.50;;;9.52;;
59233;SDS011;60776;51.702;7.462;2023-06-22T00:43:56;9.80;;;8.80;;
59233;SDS011;60776;51.702;7.462;2023-06-22T00:46:25;9.95;;;9.07;;
59233;SDS011;60776;51.702;7.462;2023-06-22T00:48:50;10.70;;;9.43;;
59233;SDS011;60776;51.702;7.462;2023-06-22T00:51:17;11.30;;;8.93;;
59233;SDS011;60776;51.702;7.462;2023-06-22T00:53:45;11.05;;;9.95;;
59233;SDS011;60776;51.702;7.462;2023-06-22T00:56:11;10.75;;;9.82;;
59233;SDS011;60776;51.702;7.462;2023-06-22T00:58:42;10.80;;;9.80;;
59233;SDS011;60776;51.702;7.462;2023-06-22T01:01:10;11.77;;;10.73;;
59233;SDS011;60776;51.702;7.462;2023-06-22T01:03:36;11.00;;;9.90;;
59233;SDS011;60776;51.702;7.462;2023-06-22T01:06:10;13.20;;;11.93;;
59233;SDS011;60776;51.702;7.462;2023-06-22T01:08:49;10.38;;;9.40;;
59233;SDS011;60776;51.702;7.462;2023-06-22T01:11:24;12.52;;;11.35;;
59233;SDS011;60776;51.702;7.462;2023-06-22T01:14:06;13.32;;;11.98;;
59233;SDS011;60776;51.702;7.462;2023-06-22T01:16:57;11.35;;;10.32;;
59233;SDS011;60776;51.702;7.462;2023-06-22T01:19:44;11.98;;;10.77;;
59233;SDS011;60776;51.702;7.462;2023-06-22T01:22:13;12.48;;;11.32;;
59233;SDS011;60776;51.702;7.462;2023-06-22T01:27:56;12.00;;;10.90;;
59233;SDS011;60776;51.702;7.462;2023-06-22T01:30:30;10.68;;;9.70;;
59233;SDS011;60776;51.702;7.462;2023-06-22T01:32:59;13.02;;;11.85;;
59233;SDS011;60776;51.702;7.462;2023-06-22T01:35:26;11.20;;;10.15;;
59233;SDS011;60776;51.702;7.462;2023-06-22T01:37:53;13.45;;;12.13;;
59233;SDS011;60776;51.702;7.462;2023-06-22T01:40:20;13.60;;;12.35;;
59233;SDS011;60776;51.702;7.462;2023-06-22T01:42:47;12.73;;;11.50;;
59233;SDS011;60776;51.702;7.462;2023-06-22T01:45:14;12.65;;;11.32;;
59233;SDS011;60776;51.702;7.462;2023-06-22T01:47:41;13.55;;;12.25;;
59233;SDS011;60776;51.702;7.462;2023-06-22T01:50:07;12.60;;;11.50;;
59233;SDS011;60776;51.702;7.462;2023-06-22T01:52:34;12.77;;;11.68;;
59233;SDS011;60776;51.702;7.462;2023-06-22T01:55:00;12.50;;;11.30;;
59233;SDS011;60776;51.702;7.462;2023-06-22T01:57:26;12.55;;;11.38;;
59233;SDS011;60776;51.702;7.462;2023-06-22T01:59:55;13.48;;;11.65;;
59233;SDS011;60776;51.702;7.462;2023-06-22T02:02:39;11.57;;;10.40;;
59233;SDS011;60776;51.702;7.462;2023-06-22T02:05:28;14.63;;;13.32;;
59233;SDS011;60776;51.702;7.462;2023-06-22T02:08:24;12.35;;;11.15;;
59233;SDS011;60776;51.702;7.462;2023-06-22T02:10:53;13.98;;;12.63;;
59233;SDS011;60776;51.702;7.462;2023-06-22T02:13:21;13.75;;;12.45;;
59233;SDS011;60776;51.702;7.462;2023-06-22T02:15:58;13.65;;;12.35;;
59233;SDS011;60776;51.702;7.462;2023-06-22T02:18:25;13.85;;;12.50;;
59233;SDS011;60776;51.702;7.462;2023-06-22T02:21:00;13.77;;;12.35;;
59233;SDS011;60776;51.702;7.462;2023-06-22T02:23:26;13.82;;;12.20;;
59233;SDS011;60776;51.702;7.462;2023-06-22T02:25:52;14.90;;;13.60;;
59233;SDS011;60776;51.702;7.462;2023-06-22T02:28:17;16.40;;;14.77;;
59233;SDS011;60776;51.702;7.462;2023-06-22T02:30:43;14.75;;;13.40;;
59233;SDS011;60776;51.702;7.462;2023-06-22T02:33:09;15.15;;;13.40;;
59233;SDS011;60776;51.702;7.462;2023-06-22T02:35:36;13.85;;;12.40;;
59233;SDS011;60776;51.702;7.462;2023-06-22T02:38:03;13.15;;;12.02;;
59233;SDS011;60776;51.702;7.462;2023-06-22T02:40:29;17.73;;;15.93;;
59233;SDS011;60776;51.702;7.462;2023-06-22T02:42:55;14.20;;;12.90;;
59233;SDS011;60776;51.702;7.462;2023-06-22T02:45:27;16.23;;;14.50;;
59233;SDS011;60776;51.702;7.462;2023-06-22T02:47:53;15.38;;;14.02;;
59233;SDS011;60776;51.702;7.462;2023-06-22T02:50:21;16.10;;;14.45;;
59233;SDS011;60776;51.702;7.462;2023-06-22T02:52:49;16.60;;;14.90;;
59233;SDS011;60776;51.702;7.462;2023-06-22T02:55:15;17.75;;;15.85;;
59233;SDS011;60776;51.702;7.462;2023-06-22T02:57:40;14.35;;;12.93;;
59233;SDS011;60776;51.702;7.462;2023-06-22T03:00:09;17.38;;;15.77;;
59233;SDS011;60776;51.702;7.462;2023-06-22T03:02:41;15.38;;;13.95;;
59233;SDS011;60776;51.702;7.462;2023-06-22T03:05:11;16.73;;;15.05;;
59233;SDS011;60776;51.702;7.462;2023-06-22T03:07:41;15.23;;;13.82;;
59233;SDS011;60776;51.702;7.462;2023-06-22T03:10:08;17.42;;;15.73;;
59233;SDS011;60776;51.702;7.462;2023-06-22T03:12:35;17.50;;;15.82;;
59233;SDS011;60776;51.702;7.462;2023-06-22T03:15:01;17.40;;;15.63;;
59233;SDS011;60776;51.702;7.462;2023-06-22T03:17:27;15.45;;;13.98;;
59233;SDS011;60776;51.702;7.462;2023-06-22T03:19:52;15.63;;;14.25;;
59233;SDS011;60776;51.702;7.462;2023-06-22T03:22:18;17.20;;;15.57;;
59233;SDS011;60776;51.702;7.462;2023-06-22T03:24:44;15.98;;;14.45;;
59233;SDS011;60776;51.702;7.462;2023-06-22T03:27:09;17.65;;;16.00;;
59233;SDS011;60776;51.702;7.462;2023-06-22T03:29:37;18.58;;;16.77;;
59233;SDS011;60776;51.702;7.462;2023-06-22T03:32:03;17.02;;;15.32;;
59233;SDS011;60776;51.702;7.462;2023-06-22T03:34:31;16.77;;;15.15;;
59233;SDS011;60776;51.702;7.462;2023-06-22T03:36:58;16.58;;;15.07;;
59233;SDS011;60776;51.702;7.462;2023-06-22T03:39:28;17.23;;;15.63;;
59233;SDS011;60776;51.702;7.462;2023-06-22T03:41:53;19.10;;;17.25;;
59233;SDS011;60776;51.702;7.462;2023-06-22T03:44:19;17.42;;;15.73;;
59233;SDS011;60776;51.702;7.462;2023-06-22T03:46:45;16.55;;;14.98;;
59233;SDS011;60776;51.702;7.462;2023-06-22T03:49:11;17.35;;;15.82;;
59233;SDS011;60776;51.702;7.462;2023-06-22T03:51:36;19.00;;;17.02;;
59233;SDS011;60776;51.702;7.462;2023-06-22T03:54:04;17.75;;;15.88;;
59233;SDS011;60776;51.702;7.462;2023-06-22T03:56:30;16.10;;;14.70;;
59233;SDS011;60776;51.702;7.462;2023-06-22T03:58:56;16.17;;;14.68;;
59233;SDS011;60776;51.702;7.462;2023-06-22T04:01:22;16.58;;;14.90;;
59233;SDS011;60776;51.702;7.462;2023-06-22T04:03:47;16.70;;;13.93;;
59233;SDS011;60776;51.702;7.462;2023-06-22T04:06:14;15.50;;;14.20;;
59233;SDS011;60776;51.702;7.462;2023-06-22T04:08:44;16.42;;;14.90;;
59233;SDS011;60776;51.702;7.462;2023-06-22T04:11:13;15.18;;;13.73;;
59233;SDS011;60776;51.702;7.462;2023-06-22T04:13:38;14.65;;;13.32;;
59233;SDS011;60776;51.702;7.462;2023-06-22T04:16:04;14.35;;;12.85;;
59233;SDS011;60776;51.702;7.462;2023-06-22T04:18:35;14.65;;;13.40;;
59233;SDS011;60776;51.702;7.462;2023-06-22T04:21:09;13.82;;;12.63;;
59233;SDS011;60776;51.702;7.462;2023-06-22T04:23:35;14.70;;;12.85;;
59233;SDS011;60776;51.702;7.462;2023-06-22T04:26:01;13.60;;;12.30;;
59233;SDS011;60776;51.702;7.462;2023-06-22T04:28:27;12.38;;;11.20;;
59233;SDS011;60776;51.702;7.462;2023-06-22T04:30:52;13.40;;;12.20;;
59233;SDS011;60776;51.702;7.462;2023-06-22T04:33:23;14.52;;;13.23;;
59233;SDS011;60776;51.702;7.462;2023-06-22T04:35:48;14.85;;;13.45;;
59233;SDS011;60776;51.702;7.462;2023-06-22T04:38:15;11.98;;;10.77;;
59233;SDS011;60776;51.702;7.462;2023-06-22T04:40:41;14.93;;;13.38;;
59233;SDS011;60776;51.702;7.462;2023-06-22T04:43:15;13.85;;;12.55;;
59233;SDS011;60776;51.702;7.462;2023-06-22T04:45:41;14.10;;;12.85;;
59233;SDS011;60776;51.702;7.462;2023-06-22T04:48:07;14.10;;;12.68;;
59233;SDS011;60776;51.702;7.462;2023-06-22T04:50:35;15.40;;;13.73;;
59233;SDS011;60776;51.702;7.462;2023-06-22T04:53:04;13.95;;;12.65;;
59233;SDS011;60776;51.702;7.462;2023-06-22T04:55:32;14.40;;;13.00;;
59233;SDS011;60776;51.702;7.462;2023-06-22T04:57:58;12.60;;;11.40;;
59233;SDS011;60776;51.702;7.462;2023-06-22T05:00:29;13.52;;;12.32;;
59233;SDS011;60776;51.702;7.462;2023-06-22T05:02:58;13.52;;;12.32;;
59233;SDS011;60776;51.702;7.462;2023-06-22T05:05:24;12.43;;;11.25;;
59233;SDS011;60776;51.702;7.462;2023-06-22T05:07:50;13.40;;;12.18;;
59233;SDS011;60776;51.702;7.462;2023-06-22T05:10:18;12.35;;;11.10;;
59233;SDS011;60776;51.702;7.462;2023-06-22T05:12:45;13.95;;;12.32;;
59233;SDS011;60776;51.702;7.462;2023-06-22T05:15:14;13.63;;;12.43;;
59233;SDS011;60776;51.702;7.462;2023-06-22T05:17:40;11.55;;;10.35;;
59233;SDS011;60776;51.702;7.462;2023-06-22T05:20:08;12.90;;;11.70;;
59233;SDS011;60776;51.702;7.462;2023-06-22T05:22:34;13.50;;;12.20;;
59233;SDS011;60776;51.702;7.462;2023-06-22T05:25:03;11.95;;;10.90;;
59233;SDS011;60776;51.702;7.462;2023-06-22T05:27:31;12.88;;;11.77;;
59233;SDS011;60776;51.702;7.462;2023-06-22T05:29:57;12.77;;;11.60;;
59233;SDS011;60776;51.702;7.462;2023-06-22T05:32:22;14.13;;;12.70;;
59233;SDS011;60776;51.702;7.462;2023-06-22T05:34:48;13.05;;;11.85;;
59233;SDS011;60776;51.702;7.462;2023-06-22T05:37:13;13.48;;;12.27;;
59233;SDS011;60776;51.702;7.462;2023-06-22T05:39:39;14.45;;;13.05;;
59233;SDS011;60776;51.702;7.462;2023-06-22T05:42:05;14.38;;;12.98;;
59233;SDS011;60776;51.702;7.462;2023-06-22T05:44:34;13.50;;;11.93;;
59233;SDS011;60776;51.702;7.462;2023-06-22T05:47:00;14.30;;;12.90;;
59233;SDS011;60776;51.702;7.462;2023-06-22T05:49:26;14.20;;;12.80;;
59233;SDS011;60776;51.702;7.462;2023-06-22T05:51:57;14.68;;;13.27;;
59233;SDS011;60776;51.702;7.462;2023-06-22T05:54:23;13.93;;;12.52;;
59233;SDS011;60776;51.702;7.462;2023-06-22T05:56:57;14.23;;;12.82;;
59233;SDS011;60776;51.702;7.462;2023-06-22T05:59:25;12.30;;;11.18;;
59233;SDS011;60776;51.702;7.462;2023-06-22T06:01:50;15.30;;;13.90;;
59233;SDS011;60776;51.702;7.462;2023-06-22T06:04:17;13.63;;;12.25;;
59233;SDS011;60776;51.702;7.462;2023-06-22T06:06:43;15.15;;;13.60;;
59233;SDS011;60776;51.702;7.462;2023-06-22T06:09:09;15.05;;;13.65;;
59233;SDS011;60776;51.702;7.462;2023-06-22T06:11:36;15.02;;;13.50;;
59233;SDS011;60776;51.702;7.462;2023-06-22T06:14:01;13.73;;;12.43;;
59233;SDS011;60776;51.702;7.462;2023-06-22T06:16:27;12.80;;;11.40;;
59233;SDS011;60776;51.702;7.462;2023-06-22T06:18:53;15.13;;;13.60;;
59233;SDS011;60776;51.702;7.462;2023-06-22T06:21:20;14.48;;;13.05;;
59233;SDS011;60776;51.702;7.462;2023-06-22T06:23:46;12.55;;;11.45;;
59233;SDS011;60776;51.702;7.462;2023-06-22T06:26:22;15.10;;;13.50;;
59233;SDS011;60776;51.702;7.462;2023-06-22T06:28:53;15.32;;;12.88;;
59233;SDS011;60776;51.702;7.462;2023-06-22T06:31:19;15.35;;;13.10;;
59233;SDS011;60776;51.702;7.462;2023-06-22T06:33:53;14.65;;;13.15;;
59233;SDS011;60776;51.702;7.462;2023-06-22T06:36:19;13.88;;;12.48;;
59233;SDS011;60776;51.702;7.462;2023-06-22T06:38:45;14.40;;;13.00;;
59233;SDS011;60776;51.702;7.462;2023-06-22T06:41:12;14.85;;;13.38;;
59233;SDS011;60776;51.702;7.462;2023-06-22T06:43:48;13.63;;;12.23;;
59233;SDS011;60776;51.702;7.462;2023-06-22T06:46:13;12.23;;;11.07;;
59233;SDS011;60776;51.702;7.462;2023-06-22T06:48:39;14.93;;;13.48;;
59233;SDS011;60776;51.702;7.462;2023-06-22T06:51:04;14.13;;;12.65;;
59233;SDS011;60776;51.702;7.462;2023-06-22T06:53:33;14.48;;;13.18;;
59233;SDS011;60776;51.702;7.462;2023-06-22T06:55:59;14.38;;;13.18;;
59233;SDS011;60776;51.702;7.462;2023-06-22T06:58:24;15.88;;;14.48;;
59233;SDS011;60776;51.702;7.462;2023-06-22T07:00:50;15.32;;;13.93;;
59233;SDS011;60776;51.702;7.462;2023-06-22T07:03:18;15.57;;;14.10;;
59233;SDS011;60776;51.702;7.462;2023-06-22T07:05:44;17.58;;;15.23;;
59233;SDS011;60776;51.702;7.462;2023-06-22T07:08:09;16.20;;;14.65;;
59233;SDS011;60776;51.702;7.462;2023-06-22T07:10:35;16.08;;;14.43;;
59233;SDS011;60776;51.702;7.462;2023-06-22T07:13:06;16.00;;;14.40;;
59233;SDS011;60776;51.702;7.462;2023-06-22T07:15:31;15.25;;;13.93;;
59233;SDS011;60776;51.702;7.462;2023-06-22T07:17:57;16.65;;;15.05;;
59233;SDS011;60776;51.702;7.462;2023-06-22T07:20:22;15.65;;;14.10;;
59233;SDS011;60776;51.702;7.462;2023-06-22T07:22:48;16.75;;;15.25;;
59233;SDS011;60776;51.702;7.462;2023-06-22T07:25:14;17.25;;;15.57;;
59233;SDS011;60776;51.702;7.462;2023-06-22T07:27:43;17.67;;;16.02;;
59233;SDS011;60776;51.702;7.462;2023-06-22T07:30:10;15.60;;;14.10;;
59233;SDS011;60776;51.702;7.462;2023-06-22T07:32:37;16.05;;;14.68;;
59233;SDS011;60776;51.702;7.462;2023-06-22T07:35:03;16.05;;;14.60;;
59233;SDS011;60776;51.702;7.462;2023-06-22T07:37:29;16.67;;;15.18;;
59233;SDS011;60776;51.702;7.462;2023-06-22T07:39:55;15.55;;;14.05;;
59233;SDS011;60776;51.702;7.462;2023-06-22T07:42:29;17.08;;;15.27;;
59233;SDS011;60776;51.702;7.462;2023-06-22T07:44:57;19.42;;;15.32;;
59233;SDS011;60776;51.702;7.462;2023-06-22T07:47:25;17.90;;;16.05;;
59233;SDS011;60776;51.702;7.462;2023-06-22T07:49:53;17.05;;;15.40;;
59233;SDS011;60776;51.702;7.462;2023-06-22T07:52:26;16.77;;;15.27;;
59233;SDS011;60776;51.702;7.462;2023-06-22T07:54:51;17.92;;;16.23;;
59233;SDS011;60776;51.702;7.462;2023-06-22T07:57:17;16.52;;;15.02;;
59233;SDS011;60776;51.702;7.462;2023-06-22T07:59:43;16.35;;;14.82;;
59233;SDS011;60776;51.702;7.462;2023-06-22T08:02:09;16.75;;;15.07;;
59233;SDS011;60776;51.702;7.462;2023-06-22T08:04:35;16.45;;;14.95;;
59233;SDS011;60776;51.702;7.462;2023-06-22T08:07:04;16.77;;;15.27;;
59233;SDS011;60776;51.702;7.462;2023-06-22T08:09:31;16.38;;;14.70;;
59233;SDS011;60776;51.702;7.462;2023-06-22T08:11:58;17.20;;;15.60;;
59233;SDS011;60776;51.702;7.462;2023-06-22T08:14:27;17.45;;;15.73;;
59233;SDS011;60776;51.702;7.462;2023-06-22T08:16:55;16.10;;;14.73;;
59233;SDS011;60776;51.702;7.462;2023-06-22T08:19:21;16.75;;;15.23;;
59233;SDS011;60776;51.702;7.462;2023-06-22T08:21:46;16.52;;;14.82;;
59233;SDS011;60776;51.702;7.462;2023-06-22T08:24:12;16.75;;;15.23;;
59233;SDS011;60776;51.702;7.462;2023-06-22T08:26:38;15.45;;;14.00;;
59233;SDS011;60776;51.702;7.462;2023-06-22T08:29:08;17.63;;;16.02;;
59233;SDS011;60776;51.702;7.462;2023-06-22T08:31:34;16.33;;;14.77;;
59233;SDS011;60776;51.702;7.462;2023-06-22T08:34:00;16.33;;;14.77;;
59233;SDS011;60776;51.702;7.462;2023-06-22T08:36:25;16.77;;;15.15;;
59233;SDS011;60776;51.702;7.462;2023-06-22T08:38:54;17.25;;;15.75;;
59233;SDS011;60776;51.702;7.462;2023-06-22T08:41:22;16.60;;;15.10;;
59233;SDS011;60776;51.702;7.462;2023-06-22T08:43:48;16.98;;;15.52;;
59233;SDS011;60776;51.702;7.462;2023-06-22T08:46:14;16.60;;;15.23;;
59233;SDS011;60776;51.702;7.462;2023-06-22T08:48:44;17.90;;;15.98;;
59233;SDS011;60776;51.702;7.462;2023-06-22T08:51:19;16.48;;;15.00;;
59233;SDS011;60776;51.702;7.462;2023-06-22T08:53:47;17.15;;;15.40;;
59233;SDS011;60776;51.702;7.462;2023-06-22T08:56:22;16.05;;;14.65;;
59233;SDS011;60776;51.702;7.462;2023-06-22T08:58:50;17.88;;;16.25;;
59233;SDS011;60776;51.702;7.462;2023-06-22T09:01:24;17.65;;;16.15;;
59233;SDS011;60776;51.702;7.462;2023-06-22T09:03:50;17.88;;;16.25;;
59233;SDS011;60776;51.702;7.462;2023-06-22T09:06:21;15.45;;;14.15;;
59233;SDS011;60776;51.702;7.462;2023-06-22T09:08:47;14.13;;;12.95;;
59233;SDS011;60776;51.702;7.462;2023-06-22T09:11:12;19.88;;;14.85;;
59233;SDS011;60776;51.702;7.462;2023-06-22T09:13:41;16.10;;;14.80;;
59233;SDS011;60776;51.702;7.462;2023-06-22T09:16:07;17.35;;;15.70;;
59233;SDS011;60776;51.702;7.462;2023-06-22T09:18:36;16.98;;;15.43;;
59233;SDS011;60776;51.702;7.462;2023-06-22T09:21:01;17.77;;;16.25;;
59233;SDS011;60776;51.702;7.462;2023-06-22T09:23:27;16.25;;;14.77;;
59233;SDS011;60776;51.702;7.462;2023-06-22T09:25:53;16.10;;;14.38;;
59233;SDS011;60776;51.702;7.462;2023-06-22T09:28:18;16.05;;;14.68;;
59233;SDS011;60776;51.702;7.462;2023-06-22T09:30:44;15.88;;;14.40;;
59233;SDS011;60776;51.702;7.462;2023-06-22T09:33:10;16.55;;;14.95;;
59233;SDS011;60776;51.702;7.462;2023-06-22T09:35:36;15.90;;;14.43;;
59233;SDS011;60776;51.702;7.462;2023-06-22T09:38:01;16.92;;;15.32;;
59233;SDS011;60776;51.702;7.462;2023-06-22T09:40:27;15.55;;;13.95;;
59233;SDS011;60776;51.702;7.462;2023-06-22T09:42:52;16.50;;;15.00;;
59233;SDS011;60776;51.702;7.462;2023-06-22T09:45:19;15.88;;;14.57;;
59233;SDS011;60776;51.702;7.462;2023-06-22T09:47:45;15.50;;;14.20;;
59233;SDS011;60776;51.702;7.462;2023-06-22T09:50:11;16.85;;;15.40;;
59233;SDS011;60776;51.702;7.462;2023-06-22T09:52:37;16.40;;;15.00;;
59233;SDS011;60776;51.702;7.462;2023-06-22T09:55:03;17.33;;;15.82;;
59233;SDS011;60776;51.702;7.462;2023-06-22T09:57:29;17.45;;;15.70;;
59233;SDS011;60776;51.702;7.462;2023-06-22T09:59:55;15.52;;;14.13;;
59233;SDS011;60776;51.702;7.462;2023-06-22T10:02:21;15.55;;;14.02;;
59233;SDS011;60776;51.702;7.462;2023-06-22T10:04:49;15.60;;;14.40;;
59233;SDS011;60776;51.702;7.462;2023-06-22T10:07:15;17.13;;;15.43;;
59233;SDS011;60776;51.702;7.462;2023-06-22T10:09:41;15.30;;;13.98;;
59233;SDS011;60776;51.702;7.462;2023-06-22T10:12:06;15.15;;;13.02;;
59233;SDS011;60776;51.702;7.462;2023-06-22T10:14:33;15.55;;;14.15;;
59233;SDS011;60776;51.702;7.462;2023-06-22T10:16:58;14.80;;;13.18;;
59233;SDS011;60776;51.702;7.462;2023-06-22T10:19:24;16.15;;;14.73;;
59233;SDS011;60776;51.702;7.462;2023-06-22T10:21:49;17.58;;;15.88;;
59233;SDS011;60776;51.702;7.462;2023-06-22T10:24:15;14.60;;;13.23;;
59233;SDS011;60776;51.702;7.462;2023-06-22T10:26:41;16.42;;;14.82;;
59233;SDS011;60776;51.702;7.462;2023-06-22T10:29:06;14.88;;;13.57;;
59233;SDS011;60776;51.702;7.462;2023-06-22T10:31:32;15.27;;;13.98;;
59233;SDS011;60776;51.702;7.462;2023-06-22T10:33:58;16.15;;;14.80;;
59233;SDS011;60776;51.702;7.462;2023-06-22T10:36:26;16.63;;;14.95;;
59233;SDS011;60776;51.702;7.462;2023-06-22T10:38:52;16.38;;;15.05;;
59233;SDS011;60776;51.702;7.462;2023-06-22T10:41:18;16.65;;;15.15;;
59233;SDS011;60776;51.702;7.462;2023-06-22T10:43:44;16.73;;;15.13;;
59233;SDS011;60776;51.702;7.462;2023-06-22T10:46:12;17.60;;;15.90;;
59233;SDS011;60776;51.702;7.462;2023-06-22T10:48:37;15.55;;;14.18;;
59233;SDS011;60776;51.702;7.462;2023-06-22T10:51:03;16.55;;;15.15;;
59233;SDS011;60776;51.702;7.462;2023-06-22T10:53:29;16.20;;;14.70;;
59233;SDS011;60776;51.702;7.462;2023-06-22T10:55:54;18.35;;;16.60;;
59233;SDS011;60776;51.702;7.462;2023-06-22T10:58:20;19.05;;;17.45;;
59233;SDS011;60776;51.702;7.462;2023-06-22T11:00:48;16.38;;;15.07;;
59233;SDS011;60776;51.702;7.462;2023-06-22T11:03:19;18.02;;;16.40;;
59233;SDS011;60776;51.702;7.462;2023-06-22T11:05:45;14.98;;;13.68;;
59233;SDS011;60776;51.702;7.462;2023-06-22T11:08:12;15.98;;;14.68;;
59233;SDS011;60776;51.702;7.462;2023-06-22T11:10:38;14.98;;;13.63;;
59233;SDS011;60776;51.702;7.462;2023-06-22T11:13:04;15.98;;;14.68;;
59233;SDS011;60776;51.702;7.462;2023-06-22T11:15:30;15.55;;;14.00;;
59233;SDS011;60776;51.702;7.462;2023-06-22T11:17:56;16.40;;;14.88;;
59233;SDS011;60776;51.702;7.462;2023-06-22T11:20:22;17.30;;;15.90;;
59233;SDS011;60776;51.702;7.462;2023-06-22T11:22:47;15.45;;;14.10;;
59233;SDS011;60776;51.702;7.462;2023-06-22T11:25:13;15.98;;;14.32;;
59233;SDS011;60776;51.702;7.462;2023-06-22T11:27:38;15.63;;;14.23;;
59233;SDS011;60776;51.702;7.462;2023-06-22T11:30:07;13.93;;;12.68;;
59233;SDS011;60776;51.702;7.462;2023-06-22T11:32:33;16.65;;;15.13;;
59233;SDS011;60776;51.702;7.462;2023-06-22T11:34:59;15.45;;;14.25;;
59233;SDS011;60776;51.702;7.462;2023-06-22T11:37:25;16.58;;;15.18;;
59233;SDS011;60776;51.702;7.462;2023-06-22T11:39:51;14.15;;;12.68;;
59233;SDS011;60776;51.702;7.462;2023-06-22T11:42:19;15.45;;;14.18;;
59233;SDS011;60776;51.702;7.462;2023-06-22T11:44:45;14.07;;;12.77;;
59233;SDS011;60776;51.702;7.462;2023-06-22T11:47:11;14.65;;;13.30;;
59233;SDS011;60776;51.702;7.462;2023-06-22T11:49:36;14.30;;;13.10;;
59233;SDS011;60776;51.702;7.462;2023-06-22T11:52:02;15.68;;;14.38;;
59233;SDS011;60776;51.702;7.462;2023-06-22T11:54:28;15.40;;;14.10;;
59233;SDS011;60776;51.702;7.462;2023-06-22T11:56:53;15.10;;;13.60;;
59233;SDS011;60776;51.702;7.462;2023-06-22T11:59:19;16.35;;;15.00;;
59233;SDS011;60776;51.702;7.462;2023-06-22T12:01:47;16.40;;;15.02;;
59233;SDS011;60776;51.702;7.462;2023-06-22T12:04:14;15.85;;;14.48;;
59233;SDS011;60776;51.702;7.462;2023-06-22T12:06:39;15.70;;;14.10;;
59233;SDS011;60776;51.702;7.462;2023-06-22T12:09:07;15.60;;;14.10;;
59233;SDS011;60776;51.702;7.462;2023-06-22T12:11:33;14.38;;;13.05;;
59233;SDS011;60776;51.702;7.462;2023-06-22T12:13:58;16.55;;;15.05;;
59233;SDS011;60776;51.702;7.462;2023-06-22T12:16:27;15.30;;;14.00;;
59233;SDS011;60776;51.702;7.462;2023-06-22T12:18:58;17.42;;;15.82;;
59233;SDS011;60776;51.702;7.462;2023-06-22T12:21:24;17.50;;;15.77;;
59233;SDS011;60776;51.702;7.462;2023-06-22T12:23:49;17.40;;;15.80;;
59233;SDS011;60776;51.702;7.462;2023-06-22T12:26:15;16.98;;;15.38;;
59233;SDS011;60776;51.702;7.462;2023-06-22T12:28:41;18.92;;;17.20;;
59233;SDS011;60776;51.702;7.462;2023-06-22T12:31:07;17.48;;;15.98;;
59233;SDS011;60776;51.702;7.462;2023-06-22T12:33:32;18.35;;;16.58;;
59233;SDS011;60776;51.702;7.462;2023-06-22T12:35:58;19.75;;;17.95;;
59233;SDS011;60776;51.702;7.462;2023-06-22T12:38:24;22.48;;;20.20;;
59233;SDS011;60776;51.702;7.462;2023-06-22T12:40:52;24.10;;;21.77;;
59233;SDS011;60776;51.702;7.462;2023-06-22T12:43:20;24.20;;;22.00;;
59233;SDS011;60776;51.702;7.462;2023-06-22T12:45:46;24.52;;;22.25;;
59233;SDS011;60776;51.702;7.462;2023-06-22T12:48:11;24.40;;;21.85;;
59233;SDS011;60776;51.702;7.462;2023-06-22T12:50:38;20.70;;;18.83;;
59233;SDS011;60776;51.702;7.462;2023-06-22T12:53:04;23.23;;;21.10;;
59233;SDS011;60776;51.702;7.462;2023-06-22T12:55:31;22.17;;;20.15;;
59233;SDS011;60776;51.702;7.462;2023-06-22T12:57:57;25.38;;;23.20;;
59233;SDS011;60776;51.702;7.462;2023-06-22T13:00:23;23.88;;;21.73;;
59233;SDS011;60776;51.702;7.462;2023-06-22T13:02:48;25.60;;;23.23;;
59233;SDS011;60776;51.702;7.462;2023-06-22T13:05:14;25.02;;;22.52;;
59233;SDS011;60776;51.702;7.462;2023-06-22T13:07:40;27.25;;;24.73;;
59233;SDS011;60776;51.702;7.462;2023-06-22T13:10:07;24.92;;;22.42;;
59233;SDS011;60776;51.702;7.462;2023-06-22T13:12:33;25.42;;;23.17;;
59233;SDS011;60776;51.702;7.462;2023-06-22T13:14:59;23.77;;;21.65;;
59233;SDS011;60776;51.702;7.462;2023-06-22T13:17:25;23.02;;;20.92;;
59233;SDS011;60776;51.702;7.462;2023-06-22T13:19:50;26.20;;;23.80;;
59233;SDS011;60776;51.702;7.462;2023-06-22T13:24:58;25.65;;;23.10;;
59233;SDS011;60776;51.702;7.462;2023-06-22T13:27:27;25.77;;;23.38;;
59233;SDS011;60776;51.702;7.462;2023-06-22T13:29:52;23.73;;;21.42;;
59233;SDS011;60776;51.702;7.462;2023-06-22T13:32:18;21.00;;;19.05;;
59233;SDS011;60776;51.702;7.462;2023-06-22T13:34:46;18.05;;;16.17;;
59233;SDS011;60776;51.702;7.462;2023-06-22T13:37:11;19.08;;;16.25;;
59233;SDS011;60776;51.702;7.462;2023-06-22T13:39:37;17.58;;;16.08;;
59233;SDS011;60776;51.702;7.462;2023-06-22T13:42:05;17.52;;;15.95;;
59233;SDS011;60776;51.702;7.462;2023-06-22T13:44:31;18.30;;;16.58;;
59233;SDS011;60776;51.702;7.462;2023-06-22T13:46:57;17.35;;;15.77;;
59233;SDS011;60776;51.702;7.462;2023-06-22T13:49:22;16.35;;;14.95;;
59233;SDS011;60776;51.702;7.462;2023-06-22T13:51:51;16.60;;;15.00;;
59233;SDS011;60776;51.702;7.462;2023-06-22T13:54:16;17.25;;;15.65;;
59233;SDS011;60776;51.702;7.462;2023-06-22T13:56:42;17.73;;;16.13;;
59233;SDS011;60776;51.702;7.462;2023-06-22T13:59:08;17.23;;;15.73;;
59233;SDS011;60776;51.702;7.462;2023-06-22T14:01:36;18.42;;;16.90;;
59233;SDS011;60776;51.702;7.462;2023-06-22T14:04:04;17.23;;;15.82;;
59233;SDS011;60776;51.702;7.462;2023-06-22T14:06:30;16.88;;;15.38;;
59233;SDS011;60776;51.702;7.462;2023-06-22T14:08:59;17.67;;;16.20;;
59233;SDS011;60776;51.702;7.462;2023-06-22T14:11:24;16.52;;;14.85;;
59233;SDS011;60776;51.702;7.462;2023-06-22T14:13:50;14.15;;;12.95;;
59233;SDS011;60776;51.702;7.462;2023-06-22T14:16:16;14.32;;;13.07;;
59233;SDS011;60776;51.702;7.462;2023-06-22T14:18:44;15.88;;;14.57;;
59233;SDS011;60776;51.702;7.462;2023-06-22T14:21:10;14.88;;;13.57;;
59233;SDS011;60776;51.702;7.462;2023-06-22T14:23:38;14.45;;;13.05;;
59233;SDS011;60776;51.702;7.462;2023-06-22T14:26:04;14.35;;;13.20;;
59233;SDS011;60776;51.702;7.462;2023-06-22T14:28:30;13.15;;;11.80;;
59233;SDS011;60776;51.702;7.462;2023-06-22T14:30:58;13.95;;;12.80;;